createdAt,value
2018-06-03T00:00:04.506Z,99.99
2018-06-03T00:01:12.597Z,99.99
2018-06-03T00:02:20.683Z,99.99
2018-06-03T00:03:28.716Z,99.99
2018-06-03T00:04:36.778Z,99.99
2018-06-03T00:05:44.865Z,99.99
2018-06-03T00:06:52.923Z,99.99
2018-06-03T00:08:00.985Z,99.99
2018-06-03T00:09:09.061Z,99.99
2018-06-03T00:10:17.112Z,99.99
2018-06-03T00:11:25.182Z,99.99
2018-06-03T00:12:33.263Z,99.99
2018-06-03T00:13:41.323Z,99.99
2018-06-03T00:14:49.388Z,99.99
2018-06-03T00:15:57.453Z,99.99
2018-06-03T00:17:05.504Z,99.99
2018-06-03T00:18:13.572Z,99.99
2018-06-03T00:19:21.652Z,99.99
2018-06-03T00:20:29.716Z,99.99
2018-06-03T00:21:37.796Z,99.99
2018-06-03T00:22:45.840Z,99.99
2018-06-03T00:23:53.888Z,99.99
2018-06-03T00:25:01.996Z,99.99
2018-06-03T00:26:10.080Z,99.99
2018-06-03T00:27:18.128Z,99.99
2018-06-03T00:28:26.201Z,99.99
2018-06-03T00:29:34.228Z,99.99
2018-06-03T00:30:42.320Z,99.99
2018-06-03T00:31:50.421Z,99.99
2018-06-03T00:32:58.455Z,99.99
2018-06-03T00:34:06.523Z,99.99
2018-06-03T00:35:14.585Z,99.99
2018-06-03T00:36:22.653Z,99.99
2018-06-03T00:37:30.716Z,99.99
2018-06-03T00:38:38.784Z,99.99
2018-06-03T00:39:46.859Z,99.99
2018-06-03T00:40:54.920Z,99.99
2018-06-03T00:42:02.992Z,99.99
2018-06-03T00:43:11.052Z,99.99
2018-06-03T00:44:19.125Z,99.99
2018-06-03T00:45:27.173Z,99.99
2018-06-03T00:46:35.243Z,99.99
2018-06-03T00:47:43.317Z,99.99
2018-06-03T00:48:51.373Z,99.99
2018-06-03T00:49:59.452Z,99.99
2018-06-03T00:51:07.513Z,99.99
2018-06-03T00:52:15.579Z,99.99
2018-06-03T00:53:23.619Z,99.99
2018-06-03T00:54:31.711Z,99.99
2018-06-03T00:55:39.771Z,99.99
2018-06-03T00:56:47.845Z,99.99
2018-06-03T00:57:55.895Z,99.99
2018-06-03T00:59:03.950Z,99.99
2018-06-03T01:00:12.032Z,99.99
2018-06-03T01:01:20.111Z,99.99
2018-06-03T01:02:28.171Z,99.99
2018-06-03T01:03:36.233Z,99.99
2018-06-03T01:04:44.282Z,99.99
2018-06-03T01:05:52.368Z,99.99
2018-06-03T01:07:00.414Z,99.99
2018-06-03T01:08:08.511Z,99.99
2018-06-03T01:09:16.570Z,99.99
2018-06-03T01:10:24.636Z,99.99
2018-06-03T01:11:32.703Z,99.99
2018-06-03T01:12:40.768Z,99.99
2018-06-03T01:13:48.840Z,99.99
2018-06-03T01:14:56.900Z,99.99
2018-06-03T01:16:04.959Z,99.99
2018-06-03T01:17:13.038Z,99.99
2018-06-03T01:18:21.100Z,99.99
2018-06-03T01:19:29.166Z,99.99
2018-06-03T01:20:37.220Z,99.99
2018-06-03T01:21:45.305Z,99.99
2018-06-03T01:22:53.389Z,99.99
2018-06-03T01:24:01.428Z,99.99
2018-06-03T01:25:09.501Z,99.99
2018-06-03T01:26:17.565Z,99.99
2018-06-03T01:27:25.634Z,99.99
2018-06-03T01:28:33.658Z,99.99
2018-06-03T01:29:41.763Z,99.99
2018-06-03T01:30:49.817Z,99.99
2018-06-03T01:31:57.885Z,99.99
2018-06-03T01:33:05.959Z,99.99
2018-06-03T01:34:13.993Z,99.99
2018-06-03T01:35:22.092Z,99.99
2018-06-03T01:36:30.175Z,99.99
2018-06-03T01:37:38.218Z,99.99
2018-06-03T01:38:46.281Z,99.99
2018-06-03T01:39:54.337Z,99.99
2018-06-03T01:41:02.429Z,99.99
2018-06-03T01:42:10.498Z,99.99
2018-06-03T01:43:18.561Z,99.99
2018-06-03T01:44:26.630Z,99.99
2018-06-03T01:45:34.700Z,99.99
2018-06-03T01:46:42.766Z,99.99
2018-06-03T01:47:50.864Z,99.99
2018-06-03T01:48:58.895Z,99.99
2018-06-03T01:50:06.963Z,99.99
2018-06-03T01:51:15.043Z,99.99
2018-06-03T01:52:23.107Z,99.99
2018-06-03T01:53:31.166Z,99.99
2018-06-03T01:54:39.237Z,99.99
2018-06-03T01:55:47.300Z,99.99
2018-06-03T01:56:55.382Z,99.99
2018-06-03T01:58:03.431Z,99.99
2018-06-03T01:59:11.520Z,99.99
2018-06-03T02:00:19.572Z,99.99
2018-06-03T02:01:27.635Z,99.99
2018-06-03T02:02:35.720Z,99.99
2018-06-03T02:03:43.757Z,99.99
2018-06-03T02:04:51.855Z,99.99
2018-06-03T02:05:59.917Z,99.99
2018-06-03T02:07:07.978Z,99.99
2018-06-03T02:08:16.042Z,99.99
2018-06-03T02:09:24.083Z,99.99
2018-06-03T02:10:32.192Z,99.99
2018-06-03T02:11:40.244Z,99.99
2018-06-03T02:12:48.309Z,99.99
2018-06-03T02:13:56.382Z,99.99
2018-06-03T02:15:04.427Z,99.99
2018-06-03T02:16:12.516Z,99.99
2018-06-03T02:17:20.595Z,99.99
2018-06-03T02:18:28.658Z,99.99
2018-06-03T02:19:36.722Z,99.99
2018-06-03T02:20:44.786Z,99.99
2018-06-03T02:21:52.870Z,99.99
2018-06-03T02:23:00.923Z,99.99
2018-06-03T02:24:08.993Z,99.99
2018-06-03T02:25:17.088Z,99.99
2018-06-03T02:26:25.143Z,99.99
2018-06-03T02:27:33.201Z,99.99
2018-06-03T02:28:41.275Z,99.99
2018-06-03T02:29:49.329Z,99.99
2018-06-03T02:30:57.409Z,99.99
2018-06-03T02:32:05.526Z,99.99
2018-06-03T02:33:13.536Z,99.99
2018-06-03T02:34:21.614Z,99.99
2018-06-03T02:35:29.667Z,99.99
2018-06-03T02:36:37.736Z,99.99
2018-06-03T02:37:45.801Z,99.99
2018-06-03T02:38:53.856Z,99.99
2018-06-03T02:40:01.947Z,99.99
2018-06-03T02:41:09.997Z,99.99
2018-06-03T02:42:18.057Z,99.99
2018-06-03T02:43:26.124Z,99.99
2018-06-03T02:44:34.157Z,99.99
2018-06-03T02:45:42.259Z,99.99
2018-06-03T02:46:50.320Z,99.99
2018-06-03T02:47:58.380Z,99.99
2018-06-03T02:49:06.463Z,99.99
2018-06-03T02:50:14.527Z,99.99
2018-06-03T02:51:22.590Z,99.99
2018-06-03T02:52:30.651Z,99.99
2018-06-03T02:53:38.720Z,99.99
2018-06-03T02:54:46.779Z,99.99
2018-06-03T02:55:54.837Z,99.99
2018-06-03T02:57:02.924Z,99.99
2018-06-03T02:58:10.967Z,99.99
2018-06-03T02:59:19.041Z,99.99
2018-06-03T03:00:27.102Z,99.99
2018-06-03T03:01:35.202Z,99.99
2018-06-03T03:02:43.236Z,99.99
2018-06-03T03:03:51.319Z,99.99
2018-06-03T03:04:59.377Z,99.99
2018-06-03T03:06:07.442Z,99.99
2018-06-03T03:07:15.502Z,99.99
2018-06-03T03:08:23.546Z,99.99
2018-06-03T03:09:31.639Z,99.99
2018-06-03T03:10:39.696Z,99.99
2018-06-03T03:11:47.770Z,99.99
2018-06-03T03:12:55.828Z,99.99
2018-06-03T03:14:03.892Z,99.99
2018-06-03T03:15:11.976Z,99.99
2018-06-03T03:16:20.041Z,99.99
2018-06-03T03:17:28.099Z,99.99
2018-06-03T03:18:36.156Z,99.99
2018-06-03T03:19:44.217Z,99.99
2018-06-03T03:20:52.297Z,99.99
2018-06-03T03:22:00.360Z,99.99
2018-06-03T03:23:08.428Z,99.99
2018-06-03T03:24:16.503Z,99.99
2018-06-03T03:25:24.644Z,99.99
2018-06-03T03:26:32.625Z,99.99
2018-06-03T03:27:40.685Z,99.99
2018-06-03T03:28:48.772Z,99.99
2018-06-03T03:29:56.840Z,99.99
2018-06-03T03:31:04.909Z,99.99
2018-06-03T03:32:12.967Z,99.99
2018-06-03T03:33:21.035Z,99.99
2018-06-03T03:34:29.087Z,99.99
2018-06-03T03:35:37.155Z,99.99
2018-06-03T03:36:45.244Z,99.99
2018-06-03T03:37:53.302Z,99.99
2018-06-03T03:39:01.369Z,99.99
2018-06-03T03:40:09.420Z,99.99
2018-06-03T03:41:17.500Z,99.99
2018-06-03T03:42:25.562Z,99.99
2018-06-03T03:43:33.600Z,99.99
2018-06-03T03:44:41.687Z,99.99
2018-06-03T03:45:49.771Z,99.99
2018-06-03T03:46:57.825Z,99.99
2018-06-03T03:48:05.888Z,99.99
2018-06-03T03:49:13.931Z,99.99
2018-06-03T03:50:22.032Z,99.99
2018-06-03T03:51:30.113Z,99.99
2018-06-03T03:52:38.166Z,99.99
2018-06-03T03:53:46.213Z,99.99
2018-06-03T03:54:54.267Z,99.99
2018-06-03T03:56:02.355Z,99.99
2018-06-03T03:57:10.424Z,99.99
2018-06-03T03:58:18.490Z,99.99
2018-06-03T03:59:26.583Z,99.99
2018-06-03T04:00:34.606Z,99.99
2018-06-03T04:01:42.687Z,99.99
2018-06-03T04:02:50.745Z,99.99
2018-06-03T04:03:58.828Z,99.99
2018-06-03T04:05:06.930Z,99.99
2018-06-03T04:06:14.945Z,99.99
2018-06-03T04:07:23.019Z,99.99
2018-06-03T04:08:31.096Z,99.99
2018-06-03T04:09:39.159Z,99.99
2018-06-03T04:10:47.215Z,99.99
2018-06-03T04:11:55.291Z,99.99
2018-06-03T04:13:03.356Z,99.99
2018-06-03T04:14:11.409Z,99.99
2018-06-03T04:15:19.470Z,99.99
2018-06-03T04:16:27.539Z,99.99
2018-06-03T04:17:35.616Z,99.99
2018-06-03T04:18:43.652Z,99.99
2018-06-03T04:19:51.747Z,99.99
2018-06-03T04:20:59.812Z,99.99
2018-06-03T04:22:07.879Z,99.99
2018-06-03T04:23:15.953Z,99.99
2018-06-03T04:24:23.978Z,99.99
2018-06-03T04:25:32.068Z,99.99
2018-06-03T04:26:40.160Z,99.99
2018-06-03T04:27:48.208Z,99.99
2018-06-03T04:28:56.273Z,99.99
2018-06-03T04:30:04.315Z,99.99
2018-06-03T04:31:12.447Z,99.99
2018-06-03T04:32:20.475Z,99.99
2018-06-03T04:33:28.552Z,99.99
2018-06-03T04:34:36.602Z,99.99
2018-06-03T04:35:44.678Z,99.99
2018-06-03T04:36:52.736Z,99.99
2018-06-03T04:38:00.807Z,99.99
2018-06-03T04:39:08.884Z,99.99
2018-06-03T04:40:16.929Z,99.99
2018-06-03T04:41:25.023Z,99.99
2018-06-03T04:42:33.067Z,99.99
2018-06-03T04:43:41.139Z,99.99
2018-06-03T04:44:49.208Z,99.99
2018-06-03T04:45:57.278Z,99.99
2018-06-03T04:47:05.347Z,99.99
2018-06-03T04:48:13.709Z,99.99
2018-06-03T04:49:21.467Z,99.99
2018-06-03T04:50:29.536Z,99.99
2018-06-03T04:51:37.605Z,99.99
2018-06-03T04:52:45.684Z,99.99
2018-06-03T04:53:53.700Z,99.99
2018-06-03T04:55:01.875Z,99.99
2018-06-03T04:56:09.875Z,99.99
2018-06-03T04:57:17.938Z,99.99
2018-06-03T04:58:26.010Z,99.99
2018-06-03T04:59:34.636Z,99.99
2018-06-03T05:00:42.743Z,99.99
2018-06-03T05:01:50.669Z,99.99
2018-06-03T05:02:58.266Z,99.99
2018-06-03T05:04:06.346Z,99.99
2018-06-03T05:05:14.379Z,99.99
2018-06-03T05:06:22.470Z,99.99
2018-06-03T05:07:30.543Z,99.99
2018-06-03T05:08:39.276Z,99.99
2018-06-03T05:09:46.969Z,98.67
2018-06-03T05:10:55.096Z,98.10
2018-06-03T05:12:03.482Z,97.71
2018-06-03T05:13:11.329Z,98.00
2018-06-03T05:14:20.449Z,96.75
2018-06-03T05:15:27.018Z,98.67
2018-06-03T05:16:35.052Z,98.47
2018-06-03T05:17:43.157Z,97.80
2018-06-03T05:18:51.216Z,98.76
2018-06-03T05:19:59.289Z,98.19
2018-06-03T05:21:07.355Z,98.86
2018-06-03T05:22:15.430Z,97.61
2018-06-03T05:23:23.495Z,97.23
2018-06-03T05:24:31.554Z,97.71
2018-06-03T05:25:39.632Z,96.08
2018-06-03T05:26:47.688Z,95.22
2018-06-03T05:27:55.756Z,95.98
2018-06-03T05:29:03.816Z,95.31
2018-06-03T05:30:11.881Z,96.37
2018-06-03T05:31:19.960Z,95.41
2018-06-03T05:32:28.030Z,96.13
2018-06-03T05:33:36.105Z,96.61
2018-06-03T05:34:44.135Z,95.07
2018-06-03T05:35:52.237Z,92.97
2018-06-03T05:37:00.327Z,94.12
2018-06-03T05:38:08.779Z,94.21
2018-06-03T05:39:17.976Z,95.26
2018-06-03T05:40:24.851Z,95.60
2018-06-03T05:41:33.032Z,94.21
2018-06-03T05:42:41.060Z,94.40
2018-06-03T05:43:48.718Z,93.21
2018-06-03T05:44:56.773Z,93.11
2018-06-03T05:46:04.860Z,92.63
2018-06-03T05:47:12.921Z,94.07
2018-06-03T05:48:20.981Z,90.90
2018-06-03T05:49:29.055Z,92.24
2018-06-03T05:50:37.116Z,92.10
2018-06-03T05:51:45.187Z,91.52
2018-06-03T05:52:53.256Z,91.62
2018-06-03T05:54:01.401Z,92.29
2018-06-03T05:55:09.398Z,93.44
2018-06-03T05:56:18.921Z,92.00
2018-06-03T05:57:26.147Z,92.58
2018-06-03T05:58:33.574Z,89.32
2018-06-03T05:59:41.664Z,89.22
2018-06-03T06:00:49.729Z,88.84
2018-06-03T06:01:57.807Z,90.56
2018-06-03T06:03:05.860Z,88.69
2018-06-03T06:04:13.932Z,88.59
2018-06-03T06:05:22.006Z,87.63
2018-06-03T06:06:30.072Z,87.44
2018-06-03T06:07:38.151Z,88.88
2018-06-03T06:08:46.220Z,85.24
2018-06-03T06:09:54.261Z,84.75
2018-06-03T06:11:02.352Z,85.04
2018-06-03T06:12:10.418Z,85.57
2018-06-03T06:13:18.494Z,85.37
2018-06-03T06:14:26.554Z,83.16
2018-06-03T06:15:34.615Z,83.54
2018-06-03T06:16:42.703Z,84.22
2018-06-03T06:17:50.766Z,83.74
2018-06-03T06:18:58.821Z,83.84
2018-06-03T06:20:06.967Z,84.99
2018-06-03T06:21:14.976Z,83.36
2018-06-03T06:22:23.059Z,83.84
2018-06-03T06:23:31.186Z,84.03
2018-06-03T06:24:39.185Z,85.41
2018-06-03T06:25:47.245Z,85.03
2018-06-03T06:26:55.332Z,83.54
2018-06-03T06:28:03.397Z,82.20
2018-06-03T06:29:11.449Z,83.74
2018-06-03T06:30:19.512Z,85.85
2018-06-03T06:31:27.593Z,83.20
2018-06-03T06:32:35.680Z,82.49
2018-06-03T06:33:43.723Z,82.59
2018-06-03T06:34:51.872Z,82.43
2018-06-03T06:35:59.864Z,82.92
2018-06-03T06:37:07.945Z,82.63
2018-06-03T06:38:16.011Z,83.78
2018-06-03T06:39:24.051Z,84.26
2018-06-03T06:40:32.148Z,84.45
2018-06-03T06:41:40.277Z,84.94
2018-06-03T06:42:48.289Z,83.01
2018-06-03T06:43:56.362Z,81.86
2018-06-03T06:45:04.407Z,82.43
2018-06-03T06:46:12.472Z,83.78
2018-06-03T06:47:20.565Z,81.96
2018-06-03T06:48:28.631Z,82.43
2018-06-03T06:49:36.706Z,82.73
2018-06-03T06:50:44.772Z,83.87
2018-06-03T06:51:52.852Z,83.69
2018-06-03T06:53:00.914Z,83.59
2018-06-03T06:54:08.993Z,83.34
2018-06-03T06:55:17.045Z,83.34
2018-06-03T06:56:25.111Z,83.63
2018-06-03T06:57:33.177Z,82.48
2018-06-03T06:58:41.292Z,81.04
2018-06-03T06:59:49.343Z,80.75
2018-06-03T07:00:57.395Z,80.79
2018-06-03T07:02:05.467Z,79.92
2018-06-03T07:03:13.515Z,79.05
2018-06-03T07:04:21.601Z,80.69
2018-06-03T07:05:29.678Z,79.15
2018-06-03T07:06:37.760Z,78.61
2018-06-03T07:07:45.816Z,78.13
2018-06-03T07:08:53.871Z,76.11
2018-06-03T07:10:01.951Z,77.98
2018-06-03T07:11:10.044Z,75.96
2018-06-03T07:12:18.131Z,75.57
2018-06-03T07:13:26.174Z,76.86
2018-06-03T07:14:34.241Z,77.92
2018-06-03T07:15:42.318Z,74.45
2018-06-03T07:16:50.400Z,74.16
2018-06-03T07:17:58.622Z,74.88
2018-06-03T07:19:06.524Z,74.01
2018-06-03T07:20:14.599Z,74.10
2018-06-03T07:21:22.673Z,73.37
2018-06-03T07:22:30.750Z,72.21
2018-06-03T07:23:38.824Z,71.54
2018-06-03T07:24:46.885Z,72.99
2018-06-03T07:25:54.965Z,71.77
2018-06-03T07:27:03.040Z,70.42
2018-06-03T07:28:11.114Z,69.87
2018-06-03T07:29:19.177Z,66.78
2018-06-03T07:30:28.869Z,67.49
2018-06-03T07:31:36.937Z,66.75
2018-06-03T07:32:45.004Z,66.11
2018-06-03T07:33:53.094Z,67.79
2018-06-03T07:35:01.163Z,66.66
2018-06-03T07:36:09.226Z,62.63
2018-06-03T07:37:17.304Z,60.52
2018-06-03T07:38:25.380Z,61.26
2018-06-03T07:39:33.463Z,59.97
2018-06-03T07:40:41.539Z,55.94
2018-06-03T07:41:49.615Z,55.85
2018-06-03T07:42:57.691Z,54.64
2018-06-03T07:44:07.171Z,54.08
2018-06-03T07:45:15.254Z,51.97
2018-06-03T07:46:23.327Z,49.92
2018-06-03T07:47:31.417Z,47.78
2018-06-03T07:48:39.519Z,47.13
2018-06-03T07:49:47.571Z,50.60
2018-06-03T07:50:55.655Z,48.27
2018-06-03T07:52:03.717Z,49.83
2018-06-03T07:53:11.822Z,50.04
2018-06-03T07:54:20.257Z,48.75
2018-06-03T07:55:28.004Z,47.32
2018-06-03T07:56:36.123Z,48.36
2018-06-03T07:57:44.144Z,49.92
2018-06-03T07:58:52.297Z,47.39
2018-06-03T08:00:00.347Z,47.78
2018-06-03T08:01:08.411Z,48.36
2018-06-03T08:02:16.482Z,49.10
2018-06-03T08:03:24.577Z,50.16
2018-06-03T08:04:32.670Z,49.61
2018-06-03T08:05:40.749Z,49.61
2018-06-03T08:06:49.950Z,47.96
2018-06-03T08:07:56.900Z,53.08
2018-06-03T08:09:04.981Z,50.53
2018-06-03T08:10:13.110Z,50.80
2018-06-03T08:11:21.181Z,51.48
2018-06-03T08:12:29.232Z,51.99
2018-06-03T08:13:37.385Z,50.46
2018-06-03T08:14:45.407Z,48.83
2018-06-03T08:15:53.486Z,47.76
2018-06-03T08:17:01.565Z,48.63
2018-06-03T08:18:09.644Z,47.96
2018-06-03T08:19:17.733Z,49.10
2018-06-03T08:20:25.817Z,49.49
2018-06-03T08:21:33.868Z,52.59
2018-06-03T08:22:42.017Z,51.36
2018-06-03T08:23:50.049Z,49.54
2018-06-03T08:24:58.134Z,49.37
2018-06-03T08:26:06.232Z,49.58
2018-06-03T08:27:14.300Z,45.03
2018-06-03T08:28:22.394Z,48.97
2018-06-03T08:29:30.470Z,49.15
2018-06-03T08:30:38.559Z,49.05
2018-06-03T08:31:46.656Z,48.85
2018-06-03T08:32:54.709Z,49.73
2018-06-03T08:34:02.808Z,51.29
2018-06-03T08:35:10.901Z,52.55
2018-06-03T08:36:18.964Z,50.73
2018-06-03T08:37:27.055Z,46.56
2018-06-03T08:38:35.127Z,46.86
2018-06-03T08:39:43.224Z,47.71
2018-06-03T08:40:51.296Z,49.61
2018-06-03T08:41:59.381Z,50.87
2018-06-03T08:43:07.477Z,48.36
2018-06-03T08:44:15.544Z,51.87
2018-06-03T08:45:23.616Z,52.55
2018-06-03T08:46:31.702Z,53.14
2018-06-03T08:47:39.798Z,51.70
2018-06-03T08:48:47.872Z,50.95
2018-06-03T08:49:55.967Z,53.38
2018-06-03T08:51:04.045Z,51.04
2018-06-03T08:52:12.212Z,51.14
2018-06-03T08:53:20.221Z,47.34
2018-06-03T08:54:28.297Z,47.73
2018-06-03T08:55:36.368Z,50.24
2018-06-03T08:56:44.443Z,49.66
2018-06-03T08:57:52.560Z,50.73
2018-06-03T08:59:00.641Z,51.63
2018-06-03T09:00:08.727Z,51.04
2018-06-03T09:01:16.803Z,46.59
2018-06-03T09:02:24.885Z,47.39
2018-06-03T09:03:32.964Z,46.22
2018-06-03T09:04:41.050Z,45.26
2018-06-03T09:05:49.121Z,48.56
2018-06-03T09:06:57.271Z,43.88
2018-06-03T09:08:05.303Z,48.44
2018-06-03T09:09:13.386Z,47.92
2018-06-03T09:10:21.476Z,47.63
2018-06-03T09:11:29.558Z,47.53
2018-06-03T09:12:37.639Z,45.59
2018-06-03T09:13:45.728Z,47.22
2018-06-03T09:14:53.798Z,48.36
2018-06-03T09:16:01.891Z,51.94
2018-06-03T09:17:09.970Z,53.01
2018-06-03T09:18:18.063Z,54.86
2018-06-03T09:19:26.145Z,53.72
2018-06-03T09:20:34.211Z,48.93
2018-06-03T09:21:42.300Z,50.97
2018-06-03T09:22:50.389Z,50.58
2018-06-03T09:23:58.468Z,52.89
2018-06-03T09:25:06.547Z,53.59
2018-06-03T09:26:14.603Z,49.19
2018-06-03T09:27:22.717Z,49.37
2018-06-03T09:28:30.803Z,51.57
2018-06-03T09:29:38.878Z,54.56
2018-06-03T09:30:46.957Z,55.43
2018-06-03T09:31:55.037Z,54.75
2018-06-03T09:33:03.127Z,58.44
2018-06-03T09:34:11.206Z,58.31
2018-06-03T09:35:19.282Z,60.84
2018-06-03T09:36:27.357Z,54.72
2018-06-03T09:37:35.448Z,58.22
2018-06-03T09:38:43.514Z,55.60
2018-06-03T09:39:51.593Z,55.87
2018-06-03T09:40:59.674Z,54.90
2018-06-03T09:42:07.770Z,58.84
2018-06-03T09:43:15.830Z,57.78
2018-06-03T09:44:23.907Z,58.74
2018-06-03T09:45:31.982Z,60.68
2018-06-03T09:46:40.084Z,60.13
2018-06-03T09:47:48.151Z,58.67
2018-06-03T09:48:56.223Z,53.37
2018-06-03T09:50:04.278Z,53.75
2018-06-03T09:51:12.384Z,54.50
2018-06-03T09:52:20.463Z,57.34
2018-06-03T09:53:28.541Z,56.47
2018-06-03T09:54:36.619Z,55.69
2018-06-03T09:55:44.674Z,57.47
2018-06-03T09:56:52.757Z,58.73
2018-06-03T09:58:00.850Z,58.57
2018-06-03T09:59:08.914Z,53.81
2018-06-03T10:00:17.020Z,53.49
2018-06-03T10:01:25.064Z,54.17
2018-06-03T10:02:33.183Z,53.66
2018-06-03T10:03:41.230Z,53.95
2018-06-03T10:04:49.318Z,53.66
2018-06-03T10:05:57.385Z,52.50
2018-06-03T10:07:05.504Z,57.25
2018-06-03T10:08:13.525Z,57.25
2018-06-03T10:09:21.614Z,55.41
2018-06-03T10:10:29.687Z,54.07
2018-06-03T10:11:37.792Z,55.73
2018-06-03T10:12:45.836Z,52.88
2018-06-03T10:13:53.910Z,54.50
2018-06-03T10:15:02.007Z,52.88
2018-06-03T10:16:10.073Z,55.18
2018-06-03T10:17:18.141Z,53.34
2018-06-03T10:18:26.233Z,53.92
2018-06-03T10:19:34.278Z,55.44
2018-06-03T10:20:42.379Z,55.62
2018-06-03T10:21:50.441Z,57.53
2018-06-03T10:22:58.533Z,55.58
2018-06-03T10:24:06.594Z,57.40
2018-06-03T10:25:14.676Z,57.33
2018-06-03T10:26:22.761Z,56.65
2018-06-03T10:27:30.843Z,60.43
2018-06-03T10:28:38.928Z,58.52
2018-06-03T10:29:46.981Z,58.65
2018-06-03T10:30:55.059Z,60.39
2018-06-03T10:32:03.143Z,58.97
2018-06-03T10:33:11.214Z,56.25
2018-06-03T10:34:19.295Z,53.75
2018-06-03T10:35:27.352Z,52.01
2018-06-03T10:36:35.439Z,50.74
2018-06-03T10:37:43.514Z,56.83
2018-06-03T10:38:51.587Z,52.78
2018-06-03T10:39:59.716Z,55.67
2018-06-03T10:41:07.745Z,59.28
2018-06-03T10:42:15.824Z,56.18
2018-06-03T10:43:23.894Z,56.28
2018-06-03T10:44:31.966Z,56.47
2018-06-03T10:45:40.043Z,53.78
2018-06-03T10:46:48.126Z,53.00
2018-06-03T10:47:56.199Z,51.75
2018-06-03T10:49:04.260Z,53.27
2018-06-03T10:50:12.345Z,54.24
2018-06-03T10:51:20.427Z,51.84
2018-06-03T10:52:28.510Z,56.28
2018-06-03T10:53:36.572Z,56.79
2018-06-03T10:54:44.663Z,56.01
2018-06-03T10:55:52.728Z,55.94
2018-06-03T10:57:00.808Z,55.65
2018-06-03T10:58:08.879Z,49.66
2018-06-03T10:59:16.996Z,53.16
2018-06-03T11:00:25.037Z,57.01
2018-06-03T11:01:33.100Z,57.82
2018-06-03T11:02:41.189Z,53.54
2018-06-03T11:03:49.259Z,51.89
2018-06-03T11:04:57.343Z,53.83
2018-06-03T11:06:05.420Z,55.78
2018-06-03T11:07:13.486Z,54.80
2018-06-03T11:08:21.582Z,52.47
2018-06-03T11:09:29.647Z,52.19
2018-06-03T11:10:37.738Z,55.98
2018-06-03T11:11:45.793Z,55.00
2018-06-03T11:12:53.857Z,49.66
2018-06-03T11:14:01.955Z,48.00
2018-06-03T11:15:10.024Z,49.73
2018-06-03T11:16:18.100Z,54.58
2018-06-03T11:17:26.181Z,49.63
2018-06-03T11:18:34.248Z,52.15
2018-06-03T11:19:42.336Z,54.49
2018-06-03T11:20:50.410Z,52.15
2018-06-03T11:21:58.494Z,51.77
2018-06-03T11:23:06.569Z,53.74
2018-06-03T11:24:14.644Z,51.62
2018-06-03T11:25:22.723Z,50.56
2018-06-03T11:26:30.789Z,48.13
2018-06-03T11:27:38.875Z,49.19
2018-06-03T11:28:46.950Z,46.18
2018-06-03T11:29:55.023Z,47.42
2018-06-03T11:31:03.100Z,49.37
2018-06-03T11:32:11.176Z,48.18
2018-06-03T11:33:19.245Z,49.80
2018-06-03T11:34:27.335Z,48.93
2018-06-03T11:35:35.408Z,49.77
2018-06-03T11:36:43.487Z,54.70
2018-06-03T11:37:51.553Z,52.20
2018-06-03T11:38:59.636Z,50.84
2018-06-03T11:40:09.829Z,48.25
2018-06-03T11:41:15.791Z,51.26
2018-06-03T11:42:23.840Z,50.58
2018-06-03T11:43:31.940Z,49.73
2018-06-03T11:44:40.018Z,53.52
2018-06-03T11:45:48.095Z,54.97
2018-06-03T11:46:56.174Z,54.39
2018-06-03T11:48:04.221Z,52.86
2018-06-03T11:49:12.323Z,47.61
2018-06-03T11:50:20.398Z,52.11
2018-06-03T11:51:28.481Z,52.01
2018-06-03T11:52:36.543Z,49.97
2018-06-03T11:53:44.631Z,48.32
2018-06-03T11:54:52.702Z,53.38
2018-06-03T11:56:00.766Z,51.84
2018-06-03T11:57:08.845Z,54.57
2018-06-03T11:58:16.941Z,51.45
2018-06-03T11:59:25.009Z,47.47
2018-06-03T12:00:33.090Z,47.44
2018-06-03T12:01:41.155Z,49.19
2018-06-03T12:02:49.264Z,49.68
2018-06-03T12:03:57.313Z,53.83
2018-06-03T12:05:05.405Z,51.33
2018-06-03T12:06:13.450Z,47.93
2018-06-03T12:07:21.587Z,48.32
2018-06-03T12:08:29.654Z,48.30
2018-06-03T12:09:37.723Z,46.64
2018-06-03T12:10:45.815Z,45.28
2018-06-03T12:11:53.851Z,48.05
2018-06-03T12:13:01.962Z,45.04
2018-06-03T12:14:10.046Z,48.90
2018-06-03T12:15:18.103Z,46.65
2018-06-03T12:16:26.177Z,48.85
2018-06-03T12:17:34.247Z,53.31
2018-06-03T12:18:42.353Z,48.37
2018-06-03T12:19:50.398Z,53.58
2018-06-03T12:20:58.508Z,56.51
2018-06-03T12:22:06.575Z,55.06
2018-06-03T12:23:14.613Z,55.06
2018-06-03T12:24:22.716Z,54.02
2018-06-03T12:25:30.781Z,51.98
2018-06-03T12:26:38.844Z,52.30
2018-06-03T12:27:46.947Z,54.63
2018-06-03T12:28:54.998Z,52.91
2018-06-03T12:30:03.074Z,48.93
2018-06-03T12:31:11.172Z,49.71
2018-06-03T12:32:19.228Z,48.18
2018-06-03T12:33:27.309Z,49.44
2018-06-03T12:34:35.375Z,49.44
2018-06-03T12:35:43.460Z,48.18
2018-06-03T12:36:51.520Z,46.14
2018-06-03T12:37:59.605Z,47.23
2018-06-03T12:39:07.658Z,43.92
2018-06-03T12:40:15.767Z,46.04
2018-06-03T12:41:23.812Z,50.60
2018-06-03T12:42:31.913Z,52.45
2018-06-03T12:43:39.970Z,50.99
2018-06-03T12:44:48.537Z,50.80
2018-06-03T12:45:56.125Z,47.20
2018-06-03T12:47:04.171Z,47.96
2018-06-03T12:48:12.262Z,49.80
2018-06-03T12:49:20.337Z,50.68
2018-06-03T12:50:28.420Z,47.18
2018-06-03T12:51:36.500Z,49.71
2018-06-03T12:52:44.550Z,49.80
2018-06-03T12:53:52.638Z,47.74
2018-06-03T12:55:00.721Z,52.03
2018-06-03T12:56:08.790Z,53.10
2018-06-03T12:57:16.859Z,51.16
2018-06-03T12:58:24.934Z,54.27
2018-06-03T12:59:33.008Z,52.33
2018-06-03T13:00:41.102Z,47.66
2018-06-03T13:01:49.174Z,50.87
2018-06-03T13:02:57.231Z,55.53
2018-06-03T13:04:05.318Z,56.50
2018-06-03T13:05:13.392Z,54.94
2018-06-03T13:06:21.461Z,56.30
2018-06-03T13:07:29.533Z,48.83
2018-06-03T13:08:37.609Z,46.69
2018-06-03T13:09:45.683Z,53.30
2018-06-03T13:10:53.739Z,51.93
2018-06-03T13:12:01.906Z,51.16
2018-06-03T13:13:09.915Z,49.71
2018-06-03T13:14:18.001Z,53.37
2018-06-03T13:15:26.058Z,50.84
2018-06-03T13:16:34.115Z,55.73
2018-06-03T13:17:42.203Z,53.10
2018-06-03T13:18:50.298Z,54.27
2018-06-03T13:19:58.349Z,56.01
2018-06-03T13:21:06.438Z,54.94
2018-06-03T13:22:14.493Z,52.42
2018-06-03T13:23:22.639Z,52.13
2018-06-03T13:24:30.664Z,48.90
2018-06-03T13:25:38.734Z,46.86
2018-06-03T13:26:46.807Z,51.81
2018-06-03T13:27:54.880Z,53.75
2018-06-03T13:29:02.937Z,47.25
2018-06-03T13:30:11.032Z,46.45
2018-06-03T13:31:19.097Z,50.34
2018-06-03T13:32:27.183Z,47.52
2018-06-03T13:33:35.253Z,50.04
2018-06-03T13:34:43.348Z,48.97
2018-06-03T13:35:51.433Z,50.14
2018-06-03T13:36:59.488Z,48.20
2018-06-03T13:38:07.577Z,49.63
2018-06-03T13:39:15.672Z,54.11
2018-06-03T13:40:23.700Z,57.09
2018-06-03T13:41:31.801Z,53.44
2018-06-03T13:42:39.865Z,53.92
2018-06-03T13:43:47.909Z,48.88
2018-06-03T13:44:56.027Z,51.21
2018-06-03T13:46:04.077Z,51.91
2018-06-03T13:47:12.160Z,51.43
2018-06-03T13:48:20.435Z,52.40
2018-06-03T13:49:28.310Z,54.34
2018-06-03T13:50:36.389Z,52.01
2018-06-03T13:51:44.456Z,52.11
2018-06-03T13:52:52.557Z,52.40
2018-06-03T13:54:00.617Z,54.24
2018-06-03T13:55:08.685Z,52.40
2018-06-03T13:56:16.794Z,55.96
2018-06-03T13:57:24.841Z,55.77
2018-06-03T13:58:32.919Z,55.57
2018-06-03T13:59:42.590Z,52.18
2018-06-03T14:00:51.854Z,50.34
2018-06-03T14:01:59.959Z,49.56
2018-06-03T14:03:08.009Z,51.11
2018-06-03T14:04:16.084Z,53.83
2018-06-03T14:05:24.132Z,51.11
2018-06-03T14:06:32.246Z,47.52
2018-06-03T14:07:40.296Z,51.89
2018-06-03T14:08:48.379Z,52.15
2018-06-03T14:09:56.453Z,55.06
2018-06-03T14:11:04.532Z,48.08
2018-06-03T14:12:12.576Z,51.09
2018-06-03T14:13:20.697Z,55.35
2018-06-03T14:14:28.748Z,55.54
2018-06-03T14:15:36.821Z,53.89
2018-06-03T14:16:44.910Z,53.61
2018-06-03T14:17:52.977Z,55.44
2018-06-03T14:19:01.051Z,53.99
2018-06-03T14:20:09.121Z,49.92
2018-06-03T14:21:17.192Z,53.51
2018-06-03T14:22:25.261Z,53.02
2018-06-03T14:23:33.365Z,54.19
2018-06-03T14:24:41.458Z,53.12
2018-06-03T14:25:49.488Z,52.73
2018-06-03T14:26:57.559Z,52.73
2018-06-03T14:28:05.646Z,56.61
2018-06-03T14:29:13.678Z,53.89
2018-06-03T14:30:21.778Z,53.31
2018-06-03T14:31:29.863Z,53.70
2018-06-03T14:32:37.926Z,52.73
2018-06-03T14:33:46.008Z,55.54
2018-06-03T14:34:54.066Z,51.47
2018-06-03T14:36:02.160Z,49.54